createdAt,value
2019-05-21T00:00:53.525Z,14.43
2019-05-21T00:05:58.602Z,14.17
2019-05-21T00:11:03.443Z,11.67
2019-05-21T00:16:08.562Z,12.03
2019-05-21T00:21:13.435Z,10.57
2019-05-21T00:26:18.824Z,10.67
2019-05-21T00:32:00.294Z,11.60
2019-05-21T00:37:41.151Z,11.80
2019-05-21T00:42:47.015Z,12.23
2019-05-21T00:47:51.959Z,12.13
2019-05-21T00:52:56.727Z,12.97
2019-05-21T00:58:01.779Z,15.07
2019-05-21T01:03:07.031Z,15.13
2019-05-21T01:08:11.808Z,15.13
2019-05-21T01:13:16.667Z,13.27
2019-05-21T01:18:21.515Z,13.27
2019-05-21T01:23:26.546Z,14.30
2019-05-21T01:28:31.791Z,14.03
2019-05-21T01:33:36.631Z,14.83
2019-05-21T01:38:41.780Z,14.03
2019-05-21T01:43:47.017Z,14.00
2019-05-21T01:48:51.784Z,12.70
2019-05-21T01:53:57.471Z,12.60
2019-05-21T01:59:02.672Z,13.03
2019-05-21T02:04:07.776Z,13.30
2019-05-21T02:09:13.542Z,13.67
2019-05-21T02:14:18.403Z,12.47
2019-05-21T02:19:23.531Z,12.40
2019-05-21T02:24:28.644Z,13.47
2019-05-21T02:29:34.436Z,11.80
2019-05-21T02:34:39.506Z,11.73
2019-05-21T02:39:44.507Z,11.37
2019-05-21T02:44:53.708Z,12.20
2019-05-21T02:49:56.467Z,13.77
2019-05-21T02:55:01.740Z,14.17
2019-05-21T03:00:08.945Z,13.57
2019-05-21T03:05:13.885Z,11.30
2019-05-21T03:10:19.132Z,10.47
2019-05-21T03:15:24.052Z,9.90
2019-05-21T03:20:29.554Z,9.37
2019-05-21T03:25:34.388Z,11.07
2019-05-21T03:30:39.564Z,11.73
2019-05-21T03:35:45.131Z,12.67
2019-05-21T03:40:50.617Z,12.13
2019-05-21T03:45:55.892Z,11.57
2019-05-21T03:51:00.712Z,11.90
2019-05-21T03:56:05.671Z,12.33
2019-05-21T04:01:10.532Z,12.87
2019-05-21T04:06:16.039Z,13.40
2019-05-21T04:11:21.027Z,15.07
2019-05-21T04:16:40.128Z,17.33
2019-05-21T04:21:44.964Z,19.00
2019-05-21T04:26:49.725Z,18.07
2019-05-21T04:31:54.817Z,19.17
2019-05-21T04:37:10.080Z,20.37
2019-05-21T04:42:06.216Z,22.23
2019-05-21T04:47:11.403Z,20.70
2019-05-21T04:52:16.167Z,18.73
2019-05-21T04:57:21.049Z,19.37
2019-05-21T05:02:26.179Z,20.37
2019-05-21T05:07:31.180Z,22.87
2019-05-21T05:12:36.259Z,20.87
2019-05-21T05:17:41.452Z,21.93
2019-05-21T05:22:46.345Z,21.87
2019-05-21T05:27:51.173Z,25.13
2019-05-21T05:32:56.356Z,22.40
2019-05-21T05:38:02.745Z,20.83
2019-05-21T05:43:07.667Z,21.70
2019-05-21T05:48:13.231Z,22.33
2019-05-21T05:53:18.437Z,22.10
2019-05-21T05:58:23.267Z,22.00
2019-05-21T06:03:28.692Z,23.20
2019-05-21T06:08:33.623Z,23.33
2019-05-21T06:13:38.562Z,21.07
2019-05-21T06:18:43.486Z,19.00
2019-05-21T06:23:48.388Z,17.30
2019-05-21T06:28:53.356Z,20.83
2019-05-21T06:33:58.433Z,17.53
2019-05-21T06:39:05.090Z,18.37
2019-05-21T06:44:10.123Z,19.37
2019-05-21T06:49:15.043Z,18.43
2019-05-21T06:54:20.274Z,18.50
2019-05-21T06:59:25.008Z,18.37
2019-05-21T07:04:30.175Z,18.00
2019-05-21T07:09:34.994Z,18.40
2019-05-21T07:14:40.083Z,17.17
2019-05-21T07:19:44.949Z,11.93
2019-05-21T07:24:50.117Z,11.10
2019-05-21T07:29:54.864Z,10.13
2019-05-21T07:34:59.642Z,10.40
2019-05-21T07:40:05.815Z,12.07
2019-05-21T07:45:12.474Z,12.43
2019-05-21T07:50:18.149Z,10.37
2019-05-21T07:55:23.494Z,10.47
2019-05-21T08:00:28.439Z,12.33
2019-05-21T08:05:33.574Z,10.93
2019-05-21T08:10:38.448Z,11.07
2019-05-21T08:15:43.860Z,9.20
2019-05-21T08:20:48.759Z,9.27
2019-05-21T08:25:53.550Z,7.93
2019-05-21T08:31:02.054Z,8.57
2019-05-21T08:36:05.683Z,9.47
2019-05-21T08:41:10.761Z,9.77
2019-05-21T08:46:15.595Z,9.47
2019-05-21T08:51:20.822Z,8.40
2019-05-21T08:56:25.583Z,7.40
2019-05-21T09:01:30.797Z,7.93
2019-05-21T09:06:35.672Z,6.60
2019-05-21T09:11:41.000Z,6.57
2019-05-21T09:16:46.034Z,6.53
2019-05-21T09:21:51.513Z,6.23
2019-05-21T09:26:56.469Z,6.30
2019-05-21T09:32:01.591Z,5.97
2019-05-21T09:37:19.426Z,5.73
2019-05-21T09:42:13.279Z,5.80
2019-05-21T09:47:18.566Z,6.13
2019-05-21T09:52:23.540Z,5.73
2019-05-21T09:57:34.762Z,5.23
2019-05-21T10:02:39.755Z,5.33
2019-05-21T10:07:44.663Z,5.10
2019-05-21T10:12:50.424Z,5.25
2019-05-21T10:17:55.327Z,5.12
2019-05-21T10:23:00.191Z,4.83
2019-05-21T10:28:05.387Z,4.72
2019-05-21T10:33:10.506Z,5.30
2019-05-21T10:38:15.303Z,4.73
2019-05-21T10:43:20.584Z,5.20
2019-05-21T10:48:25.435Z,5.28
2019-05-21T10:53:31.127Z,5.22
2019-05-21T10:58:36.075Z,5.33
2019-05-21T11:03:58.951Z,4.83
2019-05-21T11:09:07.445Z,5.28
2019-05-21T11:14:12.752Z,5.53
2019-05-21T11:19:18.368Z,5.65
2019-05-21T11:24:23.636Z,4.30
2019-05-21T11:29:28.586Z,4.10
2019-05-21T11:34:34.047Z,4.30
2019-05-21T11:39:39.223Z,4.55
2019-05-21T11:44:44.156Z,5.28
2019-05-21T11:49:48.940Z,6.33
2019-05-21T11:54:55.849Z,6.25
2019-05-21T12:00:00.273Z,5.62
2019-05-21T12:05:05.573Z,5.17
2019-05-21T12:10:11.261Z,4.58
2019-05-21T12:15:17.138Z,4.65
2019-05-21T12:20:36.034Z,4.70
2019-05-21T12:25:28.881Z,5.20
2019-05-21T12:30:34.089Z,5.10
2019-05-21T12:35:39.138Z,6.25
2019-05-21T12:40:44.566Z,6.30
2019-05-21T12:45:49.580Z,6.37
2019-05-21T12:50:54.654Z,7.05
2019-05-21T12:55:59.621Z,7.00
2019-05-21T13:01:04.828Z,6.20
2019-05-21T13:06:09.782Z,6.90
2019-05-21T13:11:15.076Z,7.40
2019-05-21T13:16:20.261Z,6.08
2019-05-21T13:21:25.488Z,6.70
2019-05-21T13:26:30.801Z,6.53
2019-05-21T13:31:36.553Z,6.58
2019-05-21T13:36:41.454Z,7.50
2019-05-21T13:41:46.470Z,6.37
2019-05-21T13:46:51.868Z,6.55
2019-05-21T13:51:56.684Z,6.30
2019-05-21T13:57:01.610Z,7.42
2019-05-21T14:02:08.389Z,6.95
2019-05-21T14:07:13.431Z,7.22
2019-05-21T14:12:18.579Z,8.13
2019-05-21T14:17:23.364Z,7.92
2019-05-21T14:22:28.299Z,8.13
2019-05-21T14:27:44.058Z,8.48
2019-05-21T14:32:40.290Z,8.58
2019-05-21T14:37:45.192Z,8.03
2019-05-21T14:42:59.137Z,8.63
2019-05-21T14:47:56.827Z,8.95
2019-05-21T14:53:02.055Z,8.43
2019-05-21T14:58:07.051Z,7.60
2019-05-21T15:03:24.247Z,8.40
2019-05-21T15:08:18.842Z,7.80
2019-05-21T15:13:24.110Z,8.30
2019-05-21T15:18:29.566Z,8.88
2019-05-21T15:23:34.713Z,8.63
2019-05-21T15:28:39.881Z,8.53
2019-05-21T15:33:44.739Z,8.98
2019-05-21T15:38:51.163Z,8.57
2019-05-21T15:43:56.261Z,8.53
2019-05-21T15:49:01.181Z,8.67
2019-05-21T15:54:06.469Z,8.35
2019-05-21T15:59:11.682Z,7.00
2019-05-21T16:04:17.150Z,11.07
2019-05-21T16:09:22.207Z,8.20
2019-05-21T16:14:27.109Z,7.80
2019-05-21T16:19:32.411Z,16.30
2019-05-21T16:24:37.259Z,24.77
2019-05-21T16:29:42.308Z,8.43
2019-05-21T16:34:47.312Z,43.23
2019-05-21T16:39:52.679Z,7.83
2019-05-21T16:44:58.599Z,8.77
2019-05-21T16:50:05.557Z,8.03
2019-05-21T16:55:11.788Z,6.80
2019-05-21T17:00:18.247Z,8.15
2019-05-21T17:05:29.764Z,7.43
2019-05-21T17:10:35.620Z,6.12
2019-05-21T17:15:41.039Z,6.50
2019-05-21T17:20:45.943Z,5.57
2019-05-21T17:25:51.189Z,5.53
2019-05-21T17:30:56.795Z,5.12
2019-05-21T17:36:04.350Z,37.33
2019-05-21T17:41:11.096Z,11.90
2019-05-21T17:46:17.266Z,6.70
2019-05-21T17:51:23.593Z,5.72
2019-05-21T17:56:31.796Z,6.80
2019-05-21T18:01:39.601Z,5.70
2019-05-21T18:06:44.805Z,7.90
2019-05-21T18:11:50.088Z,6.10
2019-05-21T18:16:55.556Z,5.63
2019-05-21T18:22:01.114Z,6.03
2019-05-21T18:27:07.349Z,6.10
2019-05-21T18:32:14.353Z,6.70
2019-05-21T18:37:19.907Z,6.10
2019-05-21T18:42:25.273Z,5.33
2019-05-21T18:47:30.350Z,8.93
2019-05-21T18:52:35.699Z,5.43
2019-05-21T18:57:40.709Z,5.50
2019-05-21T19:02:47.704Z,6.73
2019-05-21T19:07:52.636Z,7.87
2019-05-21T19:13:00.797Z,7.70
2019-05-21T19:18:07.155Z,8.30
2019-05-21T19:23:13.581Z,7.50
2019-05-21T19:28:18.835Z,8.37
2019-05-21T19:33:23.800Z,8.77
2019-05-21T19:38:30.580Z,10.80
2019-05-21T19:43:36.227Z,12.87
2019-05-21T19:48:41.118Z,10.83
2019-05-21T19:53:46.227Z,11.00
2019-05-21T19:58:51.457Z,9.90
2019-05-21T20:03:57.388Z,9.30
2019-05-21T20:09:04.373Z,9.67
2019-05-21T20:14:09.498Z,10.90
2019-05-21T20:19:15.170Z,10.33
2019-05-21T20:24:21.184Z,10.43
2019-05-21T20:29:26.087Z,9.40
2019-05-21T20:34:31.382Z,10.10
2019-05-21T20:39:38.792Z,9.83
2019-05-21T20:44:44.768Z,9.87
2019-05-21T20:49:51.058Z,10.20
2019-05-21T20:54:57.099Z,9.90
2019-05-21T21:00:02.327Z,10.23
2019-05-21T21:05:08.741Z,9.37
2019-05-21T21:10:14.144Z,9.50
2019-05-21T21:15:21.767Z,9.90
2019-05-21T21:20:26.949Z,9.20
2019-05-21T21:25:33.699Z,9.17
2019-05-21T21:30:39.001Z,9.63
2019-05-21T21:35:44.148Z,9.53
2019-05-21T21:40:49.481Z,9.40
2019-05-21T21:45:54.891Z,9.50
2019-05-21T21:51:02.410Z,9.97
2019-05-21T21:56:07.448Z,9.67
2019-05-21T22:01:31.175Z,8.87
2019-05-21T22:06:39.091Z,9.50
2019-05-21T22:11:45.657Z,9.07
2019-05-21T22:16:52.226Z,8.67
2019-05-21T22:21:57.402Z,8.93
2019-05-21T22:27:02.713Z,8.43
2019-05-21T22:32:08.025Z,8.33
2019-05-21T22:37:15.125Z,8.03
2019-05-21T22:42:21.085Z,7.17
2019-05-21T22:47:27.006Z,7.20
2019-05-21T22:52:31.856Z,6.93
2019-05-21T22:57:36.700Z,7.20
2019-05-21T23:02:42.614Z,7.07
2019-05-21T23:07:47.467Z,6.97
2019-05-21T23:12:53.335Z,6.73
2019-05-21T23:17:58.260Z,7.80
2019-05-21T23:23:06.261Z,7.80
2019-05-21T23:28:11.356Z,8.27
2019-05-21T23:33:17.383Z,8.17
2019-05-21T23:38:23.525Z,8.97
2019-05-21T23:43:29.442Z,10.70
2019-05-21T23:48:35.427Z,9.80
2019-05-21T23:53:40.561Z,9.50
2019-05-21T23:58:50.168Z,7.60
